createdAt,value
2022-12-12T00:01:41.685Z,99471.28
2022-12-12T00:06:44.019Z,99447.53
2022-12-12T00:11:46.254Z,99480.72
2022-12-12T00:16:48.565Z,99485.75
2022-12-12T00:21:51.737Z,99460.84
2022-12-12T00:26:56.173Z,99465.16
2022-12-12T00:31:58.577Z,99481.06
2022-12-12T00:37:00.842Z,99483.94
2022-12-12T00:42:03.060Z,99474.09
2022-12-12T00:47:05.527Z,99489.72
2022-12-12T00:52:08.558Z,99478.03
2022-12-12T00:57:10.779Z,99481.16
2022-12-12T01:02:13.811Z,99489.63
2022-12-12T01:07:16.140Z,99484.28
2022-12-12T01:12:18.624Z,99466.13
2022-12-12T01:17:21.213Z,99486.38
2022-12-12T01:22:23.948Z,99482.22
2022-12-12T01:27:26.153Z,99495.22
2022-12-12T01:32:29.709Z,99472.59
2022-12-12T01:37:32.300Z,99510.94
2022-12-12T01:42:35.123Z,99512.78
2022-12-12T01:47:37.424Z,99511.75
2022-12-12T01:52:44.578Z,99523.34
2022-12-12T01:57:50.052Z,99538.19
2022-12-12T02:02:54.239Z,99486.44
2022-12-12T02:07:59.231Z,99526.03
2022-12-12T02:13:10.166Z,99484.38
2022-12-12T02:18:26.830Z,99508.72
2022-12-12T02:23:46.638Z,99522.72
2022-12-12T02:29:04.011Z,99511.63
2022-12-12T02:34:20.218Z,99508.09
2022-12-12T02:39:47.405Z,99492.44
2022-12-12T02:44:59.369Z,99461.91
2022-12-12T02:50:12.400Z,99457.81
2022-12-12T02:55:15.914Z,99490.38
2022-12-12T03:00:20.087Z,99505.59
2022-12-12T03:06:01.313Z,99502.53
2022-12-12T03:11:12.687Z,99506.63
2022-12-12T03:16:24.158Z,99499.63
2022-12-12T03:21:43.206Z,99481.03
2022-12-12T03:27:08.434Z,99501.88
2022-12-12T03:32:20.282Z,99512.53
2022-12-12T03:37:30.572Z,99506.38
2022-12-12T03:42:44.631Z,99531.53
2022-12-12T03:48:03.930Z,99529.88
2022-12-12T03:53:20.292Z,99548.78
2022-12-12T03:58:38.444Z,99503.22
2022-12-12T04:03:52.840Z,99533.56
2022-12-12T04:09:30.587Z,99554.97
2022-12-12T04:14:54.242Z,99550.81
2022-12-12T04:20:23.372Z,99552.09
2022-12-12T04:26:01.469Z,99549.91
2022-12-12T04:31:07.371Z,99570.28
2022-12-12T04:36:12.573Z,99592.78
2022-12-12T04:41:17.078Z,99591.91
2022-12-12T04:46:25.083Z,99586.41
2022-12-12T04:51:33.072Z,99607.59
2022-12-12T04:56:38.904Z,99580.81
2022-12-12T05:01:53.145Z,99598.56
2022-12-12T05:07:05.963Z,99604.91
2022-12-12T05:12:08.767Z,99608.66
2022-12-12T05:17:16.251Z,99612.13
2022-12-12T05:22:18.632Z,99581.34
2022-12-12T05:27:20.971Z,99604.72
2022-12-12T05:32:23.553Z,99602.63
2022-12-12T05:37:26.136Z,99606.50
2022-12-12T05:42:31.238Z,99616.38
2022-12-12T05:47:34.460Z,99616.66
2022-12-12T05:52:39.133Z,99573.16
2022-12-12T05:57:41.481Z,99580.91
2022-12-12T06:02:44.521Z,99619.81
2022-12-12T06:07:46.939Z,99603.28
2022-12-12T06:12:49.889Z,99636.25
2022-12-12T06:17:52.731Z,99645.88
2022-12-12T06:22:55.294Z,99638.69
2022-12-12T06:27:59.151Z,99615.41
2022-12-12T06:33:01.965Z,99650.44
2022-12-12T06:38:04.466Z,99640.06
2022-12-12T06:43:06.852Z,99656.34
2022-12-12T06:48:09.225Z,99651.44
2022-12-12T06:53:13.287Z,99691.19
2022-12-12T06:58:15.628Z,99686.31
2022-12-12T07:03:18.053Z,99663.19
2022-12-12T07:08:20.477Z,99675.06
2022-12-12T07:13:23.216Z,99677.56
2022-12-12T07:18:25.600Z,99702.19
2022-12-12T07:23:28.085Z,99721.22
2022-12-12T07:28:30.460Z,99677.28
2022-12-12T07:33:42.709Z,99712.44
2022-12-12T07:38:46.489Z,99667.25
2022-12-12T07:43:50.293Z,99712.50
2022-12-12T07:48:54.313Z,99710.84
2022-12-12T07:53:56.650Z,99718.91
2022-12-12T07:58:58.930Z,99728.81
2022-12-12T08:04:02.208Z,99736.44
2022-12-12T08:09:05.521Z,99747.16
2022-12-12T08:14:12.915Z,99718.47
2022-12-12T08:19:16.637Z,99736.81
2022-12-12T08:24:19.106Z,99730.19
2022-12-12T08:29:21.453Z,99732.22
2022-12-12T08:34:24.181Z,99744.53
2022-12-12T08:39:26.647Z,99693.34
2022-12-12T08:44:29.014Z,99711.19
2022-12-12T08:49:31.910Z,99698.38
2022-12-12T08:54:34.777Z,99697.94
2022-12-12T08:59:37.207Z,99704.06
2022-12-12T09:04:39.532Z,99711.25
2022-12-12T09:09:41.815Z,99737.81
2022-12-12T09:14:44.400Z,99721.44
2022-12-12T09:19:46.728Z,99719.28
2022-12-12T09:24:49.107Z,99712.16
2022-12-12T09:29:51.483Z,99726.50
2022-12-12T09:34:54.198Z,99696.16
2022-12-12T09:39:56.701Z,99715.25
2022-12-12T09:45:08.400Z,99713.69
2022-12-12T09:50:25.350Z,99722.03
2022-12-12T09:55:35.734Z,99700.47
2022-12-12T10:00:45.144Z,99699.81
2022-12-12T10:06:35.975Z,99698.22
2022-12-12T10:11:52.115Z,99690.94
2022-12-12T10:16:58.191Z,99665.56
2022-12-12T10:22:15.099Z,99661.16
2022-12-12T10:27:17.599Z,99661.19
2022-12-12T10:32:48.338Z,99670.56
2022-12-12T11:13:23.736Z,99616.19
2022-12-12T11:18:27.155Z,99617.56
2022-12-12T11:23:31.782Z,99581.44
2022-12-12T11:28:37.309Z,99595.19
2022-12-12T11:33:46.511Z,99580.44
2022-12-12T11:38:53.471Z,99584.19
2022-12-12T11:44:03.599Z,99573.97
2022-12-12T11:49:06.517Z,99568.09
2022-12-12T11:54:16.013Z,99580.28
2022-12-12T11:59:28.690Z,99548.88
2022-12-12T12:05:06.945Z,99568.81
2022-12-12T12:10:24.891Z,99579.38
2022-12-12T12:15:27.311Z,99577.13
2022-12-12T12:20:41.665Z,99584.75
2022-12-12T12:25:51.147Z,99562.22
2022-12-12T12:31:19.531Z,99560.94
2022-12-12T12:36:29.352Z,99529.34
2022-12-12T12:41:39.994Z,99561.16
2022-12-12T12:46:44.967Z,99560.59
2022-12-12T12:51:57.412Z,99555.06
2022-12-12T12:57:13.141Z,99543.09
2022-12-12T13:02:29.288Z,99536.38
2022-12-12T13:07:40.874Z,99522.53
2022-12-12T13:13:03.983Z,99520.28
2022-12-12T13:18:12.185Z,99499.66
2022-12-12T13:23:32.510Z,99521.13
2022-12-12T13:28:46.159Z,99500.69
2022-12-12T13:33:56.272Z,99517.06
2022-12-12T13:39:01.053Z,99523.88
2022-12-12T13:44:03.383Z,99506.47
2022-12-12T13:49:22.392Z,99502.78
2022-12-12T13:54:24.788Z,99529.66
2022-12-12T13:59:26.977Z,99509.59
2022-12-12T14:04:38.732Z,99524.63
2022-12-12T14:09:49.641Z,99532.84
2022-12-12T14:14:58.843Z,99535.22
2022-12-12T14:20:01.940Z,99515.06
2022-12-12T14:25:19.558Z,99522.00
2022-12-12T14:30:34.008Z,99548.16
2022-12-12T14:36:02.675Z,99544.78
2022-12-12T14:41:13.404Z,99525.19
2022-12-12T14:46:17.919Z,99542.19
2022-12-12T14:51:29.235Z,99544.72
2022-12-12T14:56:52.661Z,99536.97
2022-12-12T15:02:08.016Z,99531.25
2022-12-12T15:07:30.927Z,99526.66
2022-12-12T15:12:36.169Z,99525.03
2022-12-12T15:17:48.956Z,99516.22
2022-12-12T15:22:55.561Z,99527.50
2022-12-12T15:27:59.142Z,99523.84
2022-12-12T15:33:03.890Z,99492.19
2022-12-12T15:38:12.809Z,99513.19
2022-12-12T15:43:19.294Z,99507.78
2022-12-12T15:48:22.961Z,99520.06
2022-12-12T15:53:28.710Z,99509.63
2022-12-12T15:58:35.549Z,99504.59
2022-12-12T16:03:38.141Z,99487.13
2022-12-12T16:08:47.651Z,99507.63
2022-12-12T16:13:49.962Z,99473.47
2022-12-12T16:18:52.274Z,99479.78
2022-12-12T16:23:55.070Z,99474.84
2022-12-12T16:28:58.899Z,99488.84
2022-12-12T16:34:03.940Z,99489.59
2022-12-12T16:39:06.796Z,99499.09
2022-12-12T16:44:09.158Z,99495.09
2022-12-12T16:49:15.332Z,99523.00
2022-12-12T16:54:18.108Z,99510.81
2022-12-12T16:59:20.396Z,99536.97
2022-12-12T17:04:24.541Z,99513.28
2022-12-12T17:09:30.112Z,99501.31
2022-12-12T17:14:32.762Z,99522.19
2022-12-12T17:19:35.188Z,99529.53
2022-12-12T17:24:37.517Z,99510.81
2022-12-12T17:29:40.009Z,99525.84
2022-12-12T17:34:43.324Z,99531.81
2022-12-12T17:39:45.629Z,99511.19
2022-12-12T17:44:49.548Z,99498.78
2022-12-12T17:49:51.819Z,99450.47
2022-12-12T17:55:53.863Z,99460.06
2022-12-12T18:00:17.484Z,99462.75
2022-12-12T18:05:20.174Z,99445.88
2022-12-12T18:10:22.446Z,99453.94
2022-12-12T18:15:24.746Z,99482.06
2022-12-12T18:20:31.323Z,99489.81
2022-12-12T18:25:36.960Z,99477.38
2022-12-12T18:30:42.697Z,99473.13
2022-12-12T18:35:45.008Z,99494.66
2022-12-12T18:40:47.343Z,99471.97
2022-12-12T18:45:49.749Z,99511.75
2022-12-12T18:50:52.053Z,99504.19
2022-12-12T18:55:54.417Z,99502.78
2022-12-12T19:01:13.648Z,99481.47
2022-12-12T19:06:22.974Z,99503.81
2022-12-12T19:11:25.399Z,99505.47
2022-12-12T19:16:27.978Z,99503.69
2022-12-12T19:21:30.419Z,99476.44
2022-12-12T19:26:32.732Z,99498.78
2022-12-12T19:31:36.556Z,99488.53
2022-12-12T19:36:39.464Z,99505.44
2022-12-12T19:41:42.549Z,99476.66
2022-12-12T19:46:48.138Z,99482.19
2022-12-12T19:51:50.471Z,99478.38
2022-12-12T19:56:52.839Z,99482.75
2022-12-12T20:01:55.402Z,99506.72
2022-12-12T20:06:58.228Z,99479.69
2022-12-12T20:12:03.924Z,99495.81
2022-12-12T20:17:06.479Z,99506.31
2022-12-12T20:22:09.080Z,99484.91
2022-12-12T20:27:11.989Z,99490.66
2022-12-12T20:32:15.005Z,99525.06
2022-12-12T20:37:20.194Z,99517.31
2022-12-12T20:42:23.050Z,99538.31
2022-12-12T20:47:25.594Z,99504.50
2022-12-12T20:52:27.807Z,99532.75
2022-12-12T20:57:30.293Z,99547.03
2022-12-12T21:02:32.662Z,99538.03
2022-12-12T21:07:35.068Z,99551.84
2022-12-12T21:12:37.334Z,99541.84
2022-12-12T21:17:39.607Z,99540.56
2022-12-12T21:22:41.853Z,99530.03
2022-12-12T21:27:44.171Z,99538.94
2022-12-12T21:32:46.495Z,99571.50
2022-12-12T21:37:48.740Z,99536.06
2022-12-12T21:42:51.224Z,99554.16
2022-12-12T21:47:53.611Z,99554.16
2022-12-12T21:53:14.460Z,99541.34
2022-12-12T21:58:17.015Z,99564.91
2022-12-12T22:03:19.450Z,99558.56
2022-12-12T22:08:21.746Z,99556.28
2022-12-12T22:13:24.242Z,99589.91
2022-12-12T22:18:26.849Z,99600.06
2022-12-12T22:23:29.139Z,99584.03
2022-12-12T22:28:31.461Z,99591.88
2022-12-12T22:33:33.859Z,99622.81
2022-12-12T22:38:38.400Z,99622.38
2022-12-12T22:43:41.082Z,99590.00
2022-12-12T22:48:43.707Z,99604.00
2022-12-12T22:53:46.767Z,99596.56
2022-12-12T22:58:49.103Z,99608.53
2022-12-12T23:03:52.592Z,99641.31
2022-12-12T23:08:57.465Z,99634.78
2022-12-12T23:14:04.815Z,99649.59
2022-12-12T23:19:08.455Z,99644.47
2022-12-12T23:24:11.055Z,99651.22
2022-12-12T23:29:17.403Z,99658.25
2022-12-12T23:34:23.558Z,99659.09
2022-12-12T23:39:27.221Z,99643.88
2022-12-12T23:44:29.569Z,99677.34
2022-12-12T23:49:32.020Z,99684.56
2022-12-12T23:54:35.406Z,99696.94
2022-12-12T23:59:37.964Z,99696.53
